Time;durP1;ratioP1;P1;durP2;ratioP2;P2;SDS_P1;SDS_P2;PMS_P1;PMS_P2;Temp;Humidity;BMP_temperature;BMP_pressure;BME280_temperature;BME280_humidity;BME280_pressure;Samples;Min_cycle;Max_cycle;Signal;HPM_P1;HPM_P2
2024/01/24 00:02:10;;;;;;;44.47;23.40;;;3.70;63.10;;;;;;5016881;28;20104;-67
2024/01/24 00:04:36;;;;;;;43.38;24.27;;;3.70;62.90;;;;;;5016592;28;20463;-66
2024/01/24 00:07:02;;;;;;;41.88;22.75;;;3.70;62.90;;;;;;5016991;28;20387;-68
2024/01/24 00:09:30;;;;;;;40.38;22.25;;;3.70;63.40;;;;;;5016429;28;20030;-66
2024/01/24 00:11:57;;;;;;;42.55;22.85;;;3.60;63.20;;;;;;5016964;28;20033;-67
2024/01/24 00:14:23;;;;;;;47.53;24.60;;;3.60;63.20;;;;;;5016654;28;20034;-67
2024/01/24 00:16:49;;;;;;;42.20;21.65;;;3.60;62.80;;;;;;5016774;28;20041;-66
2024/01/24 00:19:15;;;;;;;48.08;24.55;;;3.60;62.70;;;;;;5016755;28;20037;-67
2024/01/24 00:21:41;;;;;;;42.45;23.00;;;3.60;64.00;;;;;;5015250;28;20041;-67
2024/01/24 00:24:07;;;;;;;41.13;21.42;;;3.50;63.60;;;;;;5015222;28;20036;-67
2024/01/24 00:26:33;;;;;;;42.22;22.73;;;3.50;64.00;;;;;;5016681;28;20026;-67
2024/01/24 00:28:59;;;;;;;40.63;21.13;;;3.40;64.30;;;;;;5014894;28;20057;-67
2024/01/24 00:31:25;;;;;;;39.95;20.83;;;3.40;63.80;;;;;;5016116;28;20021;-67
2024/01/24 00:33:52;;;;;;;39.75;20.70;;;3.40;63.50;;;;;;5016555;28;20037;-67
2024/01/24 00:36:18;;;;;;;45.22;22.13;;;3.40;63.40;;;;;;5016198;28;20044;-67
2024/01/24 00:38:44;;;;;;;41.05;20.33;;;3.40;63.50;;;;;;5015899;28;20056;-67
2024/01/24 00:41:10;;;;;;;39.40;20.00;;;3.30;63.30;;;;;;5016206;28;20053;-67
2024/01/24 00:43:36;;;;;;;35.03;18.98;;;3.30;63.40;;;;;;5016403;28;20088;-66
2024/01/24 00:46:02;;;;;;;39.00;19.85;;;3.30;63.70;;;;;;5015888;28;20029;-67
2024/01/24 00:48:28;;;;;;;40.15;20.98;;;3.30;63.40;;;;;;5015742;28;20068;-67
2024/01/24 00:50:54;;;;;;;37.85;19.55;;;3.30;63.50;;;;;;5016308;28;20034;-67
2024/01/24 00:53:21;;;;;;;41.30;21.40;;;3.30;63.30;;;;;;5015583;28;20034;-66
2024/01/24 00:55:47;;;;;;;43.30;21.63;;;3.20;63.10;;;;;;5015952;28;20084;-67
2024/01/24 00:58:13;;;;;;;40.15;21.92;;;3.20;63.90;;;;;;5014708;28;20054;-66
2024/01/24 01:00:39;;;;;;;37.65;21.88;;;3.20;64.50;;;;;;5015690;28;20057;-67
2024/01/24 01:03:05;;;;;;;38.85;20.63;;;3.20;65.30;;;;;;5015672;28;20494;-67
2024/01/24 01:05:31;;;;;;;34.53;19.25;;;3.00;64.80;;;;;;5016146;28;20327;-67
2024/01/24 01:07:57;;;;;;;37.50;19.17;;;3.00;64.90;;;;;;5015582;28;20025;-67
2024/01/24 01:10:23;;;;;;;38.20;19.30;;;2.90;64.60;;;;;;5015890;28;20450;-66
2024/01/24 01:12:49;;;;;;;34.20;19.45;;;3.00;64.80;;;;;;5016096;28;20037;-66
2024/01/24 01:15:15;;;;;;;38.20;20.50;;;3.00;64.40;;;;;;5015793;28;20324;-66
2024/01/24 01:17:41;;;;;;;38.65;19.67;;;3.00;64.30;;;;;;5015696;28;20032;-66
2024/01/24 01:20:09;;;;;;;37.90;20.17;;;3.00;64.20;;;;;;5015496;28;20061;-66
2024/01/24 01:22:35;;;;;;;32.42;18.48;;;3.00;64.10;;;;;;5015447;28;20042;-67
2024/01/24 01:25:01;;;;;;;36.88;18.63;;;3.00;64.10;;;;;;5014449;28;20034;-66
2024/01/24 01:27:30;;;;;;;41.17;21.38;;;3.00;64.50;;;;;;5015672;28;20018;-66
2024/01/24 01:29:56;;;;;;;33.85;18.58;;;3.10;65.00;;;;;;5015160;28;20045;-66
2024/01/24 01:32:22;;;;;;;38.72;19.33;;;3.00;64.90;;;;;;5015591;28;20030;-66
2024/01/24 01:34:48;;;;;;;36.60;19.33;;;3.00;64.60;;;;;;5015359;28;20061;-66
2024/01/24 01:37:14;;;;;;;30.60;17.20;;;3.00;64.40;;;;;;5015241;28;20132;-66
2024/01/24 01:39:39;;;;;;;36.85;17.38;;;3.00;64.50;;;;;;5015202;28;20061;-66
2024/01/24 01:42:05;;;;;;;38.35;19.67;;;3.00;64.50;;;;;;5015296;28;20022;-67
2024/01/24 01:44:38;;;;;;;38.40;18.83;;;3.00;64.80;;;;;;5015241;28;20034;-66
2024/01/24 01:47:04;;;;;;;33.33;17.88;;;3.00;64.70;;;;;;5014994;28;20113;-66
2024/01/24 01:49:30;;;;;;;37.70;19.50;;;3.00;64.90;;;;;;5015799;28;20431;-67
2024/01/24 01:51:56;;;;;;;36.33;18.88;;;3.00;65.10;;;;;;5014250;28;20040;-66
2024/01/24 01:54:23;;;;;;;37.67;19.70;;;3.00;64.90;;;;;;5015263;28;20034;-66
2024/01/24 01:56:49;;;;;;;40.95;19.17;;;3.00;65.10;;;;;;5015591;28;20076;-66
2024/01/24 01:59:15;;;;;;;37.78;19.10;;;3.00;65.10;;;;;;5015094;28;20026;-68
2024/01/24 02:01:42;;;;;;;39.70;18.00;;;3.00;65.20;;;;;;5015657;28;20435;-65
2024/01/24 02:04:08;;;;;;;33.83;17.55;;;3.10;65.20;;;;;;5015390;28;20022;-67
2024/01/24 02:06:34;;;;;;;37.42;18.67;;;3.00;64.90;;;;;;5017720;28;20033;-66
2024/01/24 02:09:01;;;;;;;37.67;20.23;;;3.10;64.90;;;;;;5018907;28;20030;-66
2024/01/24 02:11:27;;;;;;;36.83;19.30;;;3.10;64.80;;;;;;5018832;28;20493;-67
2024/01/24 02:13:59;;;;;;;36.17;19.20;;;3.10;64.70;;;;;;5018996;28;20105;-68
2024/01/24 02:16:25;;;;;;;43.35;20.85;;;3.10;64.90;;;;;;5018561;28;20030;-68
2024/01/24 02:18:51;;;;;;;35.75;19.30;;;3.10;65.60;;;;;;5019571;28;20033;-68
2024/01/24 02:21:17;;;;;;;40.58;20.17;;;3.10;65.00;;;;;;5019558;28;20109;-67
2024/01/24 02:23:44;;;;;;;36.70;19.67;;;3.00;65.10;;;;;;5019258;28;20064;-67
2024/01/24 02:26:11;;;;;;;41.97;20.27;;;3.10;65.30;;;;;;5019200;28;20061;-67
2024/01/24 02:28:37;;;;;;;39.53;20.35;;;3.00;65.70;;;;;;5018106;28;20041;-67
2024/01/24 02:31:03;;;;;;;37.60;19.55;;;3.10;66.10;;;;;;5018620;28;20022;-67
2024/01/24 02:33:28;;;;;;;36.92;19.42;;;3.10;66.30;;;;;;5018327;28;20029;-67
2024/01/24 02:35:55;;;;;;;36.75;19.65;;;3.10;66.20;;;;;;5018639;28;20034;-67
2024/01/24 02:38:21;;;;;;;36.70;19.17;;;3.10;66.80;;;;;;5018091;28;20033;-67
2024/01/24 02:40:46;;;;;;;36.10;18.90;;;3.10;66.10;;;;;;5018169;28;20026;-67
2024/01/24 02:43:12;;;;;;;36.35;18.52;;;3.10;66.20;;;;;;5018639;28;20097;-67
2024/01/24 02:45:38;;;;;;;39.15;20.80;;;3.10;66.10;;;;;;5018038;28;20041;-67
2024/01/24 02:48:04;;;;;;;35.45;18.88;;;3.10;65.60;;;;;;5018473;28;20100;-67
2024/01/24 02:50:30;;;;;;;40.05;19.70;;;3.10;66.30;;;;;;5018022;28;20026;-67
2024/01/24 02:52:56;;;;;;;39.72;20.10;;;3.00;66.20;;;;;;5018443;28;20026;-67
2024/01/24 02:55:22;;;;;;;35.33;19.67;;;3.10;65.80;;;;;;5018191;28;20022;-67
2024/01/24 02:57:48;;;;;;;35.53;19.80;;;3.00;66.20;;;;;;5017678;28;20026;-67
2024/01/24 03:00:15;;;;;;;42.33;19.80;;;3.00;66.50;;;;;;5018095;28;20486;-67
2024/01/24 03:02:41;;;;;;;33.92;18.50;;;3.10;66.50;;;;;;5017778;28;20037;-66
2024/01/24 03:05:11;;;;;;;39.55;20.85;;;3.00;66.40;;;;;;5017982;28;20105;-67
2024/01/24 03:07:37;;;;;;;33.45;18.75;;;3.00;66.30;;;;;;5018191;28;20455;-67
2024/01/24 03:10:04;;;;;;;42.05;20.45;;;3.00;66.00;;;;;;5016610;28;20026;-67
2024/01/24 03:12:30;;;;;;;38.38;20.30;;;3.00;66.60;;;;;;5017561;28;20553;-67
2024/01/24 03:14:56;;;;;;;35.35;19.65;;;2.90;66.50;;;;;;5017797;28;20447;-67
2024/01/24 03:17:22;;;;;;;35.75;18.73;;;2.90;67.10;;;;;;5017913;28;20439;-68
2024/01/24 03:19:48;;;;;;;40.63;20.02;;;2.90;66.80;;;;;;5016413;28;20037;-67
2024/01/24 03:22:14;;;;;;;40.22;19.77;;;2.90;67.00;;;;;;5017383;28;20053;-67
2024/01/24 03:24:40;;;;;;;40.97;20.88;;;2.90;66.70;;;;;;5017875;28;20411;-67
2024/01/24 03:27:06;;;;;;;36.55;19.75;;;2.80;67.90;;;;;;5017810;28;20076;-67
2024/01/24 03:29:32;;;;;;;33.40;17.45;;;2.80;67.60;;;;;;5016938;28;20054;-67
2024/01/24 03:31:58;;;;;;;39.70;19.02;;;2.80;67.20;;;;;;5017231;28;20033;-67
2024/01/24 03:34:30;;;;;;;38.08;20.88;;;2.80;67.40;;;;;;5017073;28;20030;-67
2024/01/24 03:36:56;;;;;;;39.38;20.02;;;2.80;67.60;;;;;;5016762;28;20026;-67
2024/01/24 03:39:22;;;;;;;35.85;19.52;;;2.90;67.20;;;;;;5015999;28;20026;-68
2024/01/24 03:41:48;;;;;;;41.13;21.58;;;2.90;67.60;;;;;;5017562;28;20033;-68
2024/01/24 03:44:13;;;;;;;38.80;20.15;;;2.90;67.50;;;;;;5016992;28;20036;-67
2024/01/24 03:46:39;;;;;;;44.17;22.10;;;2.90;67.50;;;;;;5016935;28;20351;-67
2024/01/24 03:49:05;;;;;;;39.40;20.80;;;2.90;67.90;;;;;;5016811;28;20033;-68
2024/01/24 03:51:31;;;;;;;39.45;21.00;;;2.90;68.00;;;;;;5016841;28;20034;-67
2024/01/24 03:53:57;;;;;;;39.95;20.50;;;2.90;67.90;;;;;;5016803;28;20022;-67
2024/01/24 03:56:23;;;;;;;41.30;21.35;;;2.90;68.20;;;;;;5016680;28;20014;-67
2024/01/24 03:58:49;;;;;;;41.88;21.45;;;2.90;67.90;;;;;;5016645;28;20045;-67
2024/01/24 04:01:16;;;;;;;33.35;18.52;;;2.90;67.80;;;;;;5016665;28;20041;-68
2024/01/24 04:03:42;;;;;;;40.45;19.70;;;2.90;67.70;;;;;;5017109;28;20072;-67
2024/01/24 04:06:08;;;;;;;41.75;21.95;;;2.90;67.70;;;;;;5015602;28;20021;-67
2024/01/24 04:08:34;;;;;;;39.75;20.42;;;2.90;67.90;;;;;;5016493;28;20030;-68
2024/01/24 04:11:00;;;;;;;41.40;20.85;;;2.90;67.70;;;;;;5016983;28;20030;-67
2024/01/24 04:13:26;;;;;;;40.78;20.83;;;2.90;67.90;;;;;;5016431;28;20036;-67
2024/01/24 04:15:51;;;;;;;42.60;20.70;;;2.90;67.70;;;;;;5016323;28;20026;-67
2024/01/24 04:18:17;;;;;;;40.72;20.92;;;2.90;67.80;;;;;;5016813;28;20056;-67
2024/01/24 04:20:44;;;;;;;36.65;20.08;;;2.80;67.80;;;;;;5016900;28;20022;-67
2024/01/24 04:23:10;;;;;;;36.60;19.40;;;2.80;68.40;;;;;;5016555;28;20527;-67
2024/01/24 04:25:35;;;;;;;40.45;19.60;;;2.80;68.00;;;;;;5016222;28;20042;-67
2024/01/24 04:28:01;;;;;;;40.25;20.45;;;2.80;67.80;;;;;;5015653;28;20049;-67
2024/01/24 04:30:27;;;;;;;37.38;21.00;;;2.80;68.00;;;;;;5015979;28;20049;-67
2024/01/24 04:32:53;;;;;;;37.70;20.40;;;2.80;68.50;;;;;;5016621;28;20037;-67
2024/01/24 04:35:20;;;;;;;37.38;19.20;;;2.80;68.10;;;;;;5016076;28;20021;-67
2024/01/24 04:37:45;;;;;;;38.03;19.17;;;2.80;67.90;;;;;;5015880;28;20034;-67
2024/01/24 04:40:12;;;;;;;39.00;19.55;;;2.80;67.70;;;;;;5016069;28;20022;-67
2024/01/24 04:42:38;;;;;;;34.05;18.17;;;2.80;68.00;;;;;;5016530;28;20022;-67
2024/01/24 04:45:04;;;;;;;37.00;19.25;;;2.80;67.80;;;;;;5015939;28;20030;-67
2024/01/24 04:47:31;;;;;;;37.28;19.05;;;2.80;67.90;;;;;;5016437;28;20068;-67
2024/01/24 04:49:57;;;;;;;37.00;19.10;;;2.70;67.60;;;;;;5015829;28;20075;-67
2024/01/24 04:52:23;;;;;;;39.10;18.70;;;2.70;68.10;;;;;;5015830;28;20025;-67
2024/01/24 04:54:50;;;;;;;36.85;18.92;;;2.60;68.20;;;;;;5014823;28;20026;-67
2024/01/24 04:57:18;;;;;;;39.75;19.38;;;2.60;68.00;;;;;;5015704;28;20156;-67
2024/01/24 04:59:44;;;;;;;32.30;18.02;;;2.60;67.90;;;;;;5015907;28;20026;-67
2024/01/24 05:02:10;;;;;;;36.88;19.52;;;2.60;68.00;;;;;;5016229;28;20458;-67
2024/01/24 05:04:36;;;;;;;37.47;18.02;;;2.50;67.80;;;;;;5015609;28;20014;-68
2024/01/24 05:07:02;;;;;;;32.20;16.33;;;2.50;67.90;;;;;;5014674;28;20103;-67
2024/01/24 05:09:28;;;;;;;32.20;16.48;;;2.50;68.10;;;;;;5015526;28;20026;-67
2024/01/24 05:11:54;;;;;;;36.17;18.30;;;2.50;68.00;;;;;;5015567;28;20033;-67
2024/01/24 05:14:20;;;;;;;35.58;17.38;;;2.50;68.20;;;;;;5015540;28;20021;-67
2024/01/24 05:16:47;;;;;;;36.80;15.65;;;2.50;68.00;;;;;;5014508;28;20109;-67
2024/01/24 05:19:13;;;;;;;29.67;15.30;;;2.50;67.70;;;;;;5015453;28;20018;-67
2024/01/24 05:21:41;;;;;;;25.33;13.68;;;2.50;67.70;;;;;;5015475;28;20105;-67
2024/01/24 05:24:08;;;;;;;34.50;17.60;;;2.50;67.90;;;;;;5015994;28;20125;-67
2024/01/24 05:26:36;;;;;;;36.95;17.65;;;2.50;67.70;;;;;;5015445;28;20034;-67
2024/01/24 05:29:02;;;;;;;31.35;16.88;;;2.50;68.00;;;;;;5015227;28;20475;-67
2024/01/24 05:31:29;;;;;;;37.72;17.25;;;2.50;68.30;;;;;;5015420;28;20026;-67
2024/01/24 05:33:55;;;;;;;29.63;16.48;;;2.50;68.30;;;;;;5015907;28;20037;-67
2024/01/24 05:36:22;;;;;;;26.63;14.80;;;2.40;68.10;;;;;;5015232;28;20021;-67
2024/01/24 05:38:48;;;;;;;34.60;16.48;;;2.40;68.20;;;;;;5014327;28;20459;-67
2024/01/24 05:41:13;;;;;;;29.85;16.30;;;2.40;68.50;;;;;;5017032;28;20053;-67
2024/01/24 05:43:39;;;;;;;26.67;15.57;;;2.40;68.60;;;;;;5019526;28;20044;-67
2024/01/24 05:46:05;;;;;;;30.20;16.40;;;2.40;68.20;;;;;;5019406;28;20044;-67
2024/01/24 05:48:31;;;;;;;31.52;16.15;;;2.40;68.40;;;;;;5018046;28;20586;-67
2024/01/24 05:50:57;;;;;;;30.15;15.80;;;2.40;68.60;;;;;;5019127;28;20056;-67
2024/01/24 05:53:23;;;;;;;35.10;16.33;;;2.40;68.60;;;;;;5019067;28;20075;-67
2024/01/24 05:55:49;;;;;;;33.42;16.92;;;2.40;68.50;;;;;;5018937;28;20041;-67
2024/01/24 05:58:15;;;;;;;30.13;15.95;;;2.40;68.40;;;;;;5018880;28;20037;-67
2024/01/24 06:00:41;;;;;;;30.00;16.65;;;2.40;68.50;;;;;;5019451;28;20026;-67
2024/01/24 06:03:07;;;;;;;30.85;16.50;;;2.40;68.40;;;;;;5019441;28;20049;-67
2024/01/24 06:05:33;;;;;;;28.13;14.93;;;2.40;68.20;;;;;;5018814;28;20048;-67
2024/01/24 06:07:59;;;;;;;30.65;15.70;;;2.40;68.60;;;;;;5018954;28;20454;-67
2024/01/24 06:10:25;;;;;;;33.45;16.05;;;2.40;68.50;;;;;;5018975;28;20026;-67
2024/01/24 06:12:51;;;;;;;34.60;16.55;;;2.40;68.40;;;;;;5018696;28;20101;-67
2024/01/24 06:15:18;;;;;;;31.95;17.42;;;2.30;68.50;;;;;;5019162;28;20026;-67
2024/01/24 06:17:44;;;;;;;33.88;16.85;;;2.30;68.50;;;;;;5019032;28;20305;-67
2024/01/24 06:20:11;;;;;;;37.72;16.80;;;2.20;68.60;;;;;;5018808;28;20021;-68
2024/01/24 06:22:37;;;;;;;39.63;19.35;;;2.20;68.20;;;;;;5018530;28;20348;-67
2024/01/24 06:25:07;;;;;;;46.28;23.02;;;2.20;68.50;;;;;;5018406;28;20109;-67
2024/01/24 06:27:34;;;;;;;43.50;22.85;;;2.20;68.80;;;;;;5018898;28;20075;-67
2024/01/24 06:30:00;;;;;;;47.72;23.00;;;2.30;68.60;;;;;;5018018;28;20046;-67
2024/01/24 06:32:26;;;;;;;43.10;21.20;;;2.30;68.80;;;;;;5018339;28;20105;-67
2024/01/24 06:34:52;;;;;;;39.75;19.48;;;2.30;68.90;;;;;;5018255;28;20026;-67
2024/01/24 06:37:18;;;;;;;39.55;18.85;;;2.30;68.60;;;;;;5018338;28;20362;-68
2024/01/24 06:39:44;;;;;;;37.08;17.77;;;2.30;68.10;;;;;;5018376;28;20033;-67
2024/01/24 06:42:10;;;;;;;36.88;17.88;;;2.30;68.30;;;;;;5018679;28;20105;-67
2024/01/24 06:44:36;;;;;;;53.20;25.02;;;2.20;68.40;;;;;;5021381;28;20040;-67
2024/01/24 06:47:03;;;;;;;45.88;22.67;;;2.30;68.50;;;;;;5019645;28;20029;-67
2024/01/24 06:49:28;;;;;;;43.05;20.52;;;2.30;68.40;;;;;;5017586;28;20114;-67
2024/01/24 06:51:55;;;;;;;50.33;25.27;;;2.30;68.10;;;;;;5017763;28;20033;-67
2024/01/24 06:54:22;;;;;;;54.10;24.33;;;2.30;68.50;;;;;;5018175;28;20050;-67
2024/01/24 06:59:18;;;;;;;46.85;20.35;;;2.30;68.80;;;;;;4953990;29;19923;-70
2024/01/24 07:01:44;;;;;;;40.33;20.20;;;2.30;68.90;;;;;;4940026;29;20468;-70
2024/01/24 07:04:09;;;;;;;49.38;24.45;;;2.30;68.70;;;;;;4940082;29;20024;-68
2024/01/24 07:06:35;;;;;;;35.28;18.38;;;2.40;68.40;;;;;;4939085;29;20119;-70
2024/01/24 07:09:01;;;;;;;39.38;18.95;;;2.40;68.10;;;;;;4939972;29;20042;-68
2024/01/24 07:11:28;;;;;;;37.65;20.63;;;2.30;68.60;;;;;;4939992;29;20115;-68
2024/01/24 07:13:54;;;;;;;45.85;23.30;;;2.40;68.70;;;;;;4939909;29;20031;-69
2024/01/24 07:16:20;;;;;;;35.67;18.25;;;2.40;69.10;;;;;;4940033;29;20028;-68
2024/01/24 07:18:46;;;;;;;44.67;22.27;;;2.40;68.80;;;;;;4939854;29;20023;-66
2024/01/24 07:21:14;;;;;;;47.20;21.80;;;2.50;68.80;;;;;;4939752;29;20046;-70
2024/01/24 07:23:40;;;;;;;49.47;22.30;;;2.50;68.60;;;;;;4939766;29;20031;-71
2024/01/24 07:26:06;;;;;;;45.05;23.55;;;2.60;68.70;;;;;;4939737;29;20035;-69
2024/01/24 07:28:32;;;;;;;48.78;23.50;;;2.60;68.50;;;;;;4939617;29;20111;-68
2024/01/24 07:30:58;;;;;;;45.42;22.63;;;2.70;68.70;;;;;;4939927;29;20106;-67
2024/01/24 07:33:24;;;;;;;47.03;22.15;;;2.70;68.70;;;;;;5205958;23;20142;-67
2024/01/24 07:35:50;;;;;;;46.88;21.88;;;2.70;68.80;;;;;;4942409;29;20027;-66
2024/01/24 07:38:15;;;;;;;45.53;22.67;;;2.80;68.90;;;;;;4942335;29;20028;-69
2024/01/24 07:40:41;;;;;;;42.08;22.13;;;2.90;69.00;;;;;;4942737;29;20030;-65
2024/01/24 07:43:07;;;;;;;46.28;22.98;;;2.90;69.00;;;;;;4957408;28;20038;-66
2024/01/24 07:45:33;;;;;;;46.83;25.73;;;3.10;69.30;;;;;;4942329;29;20098;-65
2024/01/24 07:47:59;;;;;;;44.08;21.55;;;3.10;69.30;;;;;;4941563;29;20484;-66
2024/01/24 07:50:27;;;;;;;49.75;23.55;;;3.30;69.10;;;;;;4939518;29;20023;-70
2024/01/24 07:52:53;;;;;;;49.85;25.48;;;3.40;69.00;;;;;;4939334;29;20040;-66
2024/01/24 07:55:19;;;;;;;48.65;24.13;;;3.40;68.50;;;;;;4939109;29;20442;-66
2024/01/24 07:57:44;;;;;;;40.28;19.90;;;3.50;68.60;;;;;;4939112;29;20031;-68
2024/01/24 08:00:16;;;;;;;46.97;21.95;;;3.60;68.50;;;;;;4938993;29;20020;-65
2024/01/24 08:02:43;;;;;;;41.83;20.80;;;3.70;68.40;;;;;;4938753;29;20035;-69
2024/01/24 08:05:12;;;;;;;41.90;19.20;;;3.90;68.30;;;;;;4938685;29;20350;-70
2024/01/24 08:07:40;;;;;;;39.38;18.48;;;4.00;68.10;;;;;;4938834;29;20042;-69
2024/01/24 08:10:10;;;;;;;43.88;20.15;;;4.10;67.90;;;;;;4939026;29;20047;-71
2024/01/24 08:12:40;;;;;;;41.10;21.63;;;4.30;68.10;;;;;;4938695;29;20490;-71
2024/01/24 08:15:07;;;;;;;38.05;19.27;;;4.50;67.80;;;;;;4938791;29;20023;-69
2024/01/24 08:17:36;;;;;;;39.15;20.20;;;4.60;67.70;;;;;;4938934;29;20453;-72
2024/01/24 08:20:10;;;;;;;41.90;20.42;;;4.70;67.40;;;;;;4939197;29;20016;-65
2024/01/24 08:22:36;;;;;;;37.25;18.80;;;4.90;67.20;;;;;;4938648;29;20087;-64
2024/01/24 08:25:09;;;;;;;41.92;20.25;;;5.00;67.00;;;;;;4938623;29;20020;-71
2024/01/24 08:27:36;;;;;;;40.13;21.13;;;5.20;66.20;;;;;;4938588;29;20036;-74
2024/01/24 08:30:02;;;;;;;36.40;18.63;;;5.30;66.30;;;;;;4938768;29;20264;-67
2024/01/24 08:32:28;;;;;;;50.25;27.15;;;5.40;66.00;;;;;;4938501;29;20056;-68
2024/01/24 08:34:54;;;;;;;41.13;23.50;;;5.60;66.50;;;;;;4938709;29;20356;-68
2024/01/24 08:37:20;;;;;;;49.08;24.10;;;5.80;66.20;;;;;;4938602;29;20082;-65
2024/01/24 08:39:46;;;;;;;44.10;22.90;;;5.90;65.60;;;;;;4938074;29;20432;-70
2024/01/24 08:42:12;;;;;;;37.15;19.63;;;6.10;65.80;;;;;;4938038;29;20051;-72
2024/01/24 08:44:38;;;;;;;39.42;19.75;;;6.20;65.20;;;;;;4937226;29;20066;-70
2024/01/24 08:47:04;;;;;;;33.95;18.65;;;6.30;64.80;;;;;;4937306;29;20036;-68
2024/01/24 08:49:31;;;;;;;36.80;19.83;;;6.40;64.70;;;;;;4938144;29;20107;-67
2024/01/24 08:51:57;;;;;;;40.15;19.80;;;6.50;64.80;;;;;;4936879;29;20103;-69
2024/01/24 08:54:23;;;;;;;33.80;19.08;;;6.70;64.00;;;;;;4938024;29;20083;-68
2024/01/24 08:56:49;;;;;;;36.22;19.02;;;6.80;63.80;;;;;;4938478;29;20051;-67
2024/01/24 08:59:15;;;;;;;35.67;19.33;;;6.90;63.20;;;;;;4937967;29;20066;-67
2024/01/24 09:01:41;;;;;;;31.80;19.15;;;6.90;63.10;;;;;;4937986;29;20044;-66
2024/01/24 09:04:07;;;;;;;34.22;19.77;;;7.00;62.90;;;;;;4938156;29;20098;-67
2024/01/24 09:06:33;;;;;;;38.08;21.40;;;7.10;62.10;;;;;;4938070;29;20036;-67
2024/01/24 09:08:59;;;;;;;37.08;21.23;;;7.10;61.10;;;;;;4937958;29;20040;-67
2024/01/24 09:11:25;;;;;;;38.22;21.63;;;7.10;61.50;;;;;;4938025;29;20442;-67
2024/01/24 09:13:51;;;;;;;33.88;19.98;;;7.20;62.20;;;;;;4937011;29;20028;-67
2024/01/24 09:16:17;;;;;;;35.45;20.23;;;7.20;62.10;;;;;;4937548;29;20075;-67
2024/01/24 09:18:43;;;;;;;32.10;20.00;;;7.30;62.10;;;;;;4938252;29;20027;-67
2024/01/24 09:21:09;;;;;;;36.80;21.17;;;7.40;61.90;;;;;;4938507;29;20027;-67
2024/01/24 09:23:36;;;;;;;39.10;21.08;;;7.50;62.10;;;;;;4937770;29;20136;-67
2024/01/24 09:26:03;;;;;;;39.20;20.70;;;7.50;61.90;;;;;;4938078;29;20019;-67
2024/01/24 09:28:29;;;;;;;40.95;20.92;;;7.60;61.60;;;;;;4938208;29;20428;-67
2024/01/24 09:30:56;;;;;;;40.20;21.25;;;7.70;61.90;;;;;;4937943;29;20023;-66
2024/01/24 09:33:23;;;;;;;33.63;21.00;;;7.90;61.90;;;;;;4937856;29;20370;-66
2024/01/24 09:35:49;;;;;;;36.47;20.92;;;7.90;61.40;;;;;;4937761;29;20039;-66
2024/01/24 09:38:16;;;;;;;37.30;20.63;;;8.00;61.70;;;;;;4938369;29;20027;-66
2024/01/24 09:40:43;;;;;;;38.53;21.67;;;8.00;61.30;;;;;;4937861;29;20457;-66
2024/01/24 09:43:10;;;;;;;34.05;20.20;;;8.20;61.20;;;;;;4937778;29;20402;-66
2024/01/24 09:45:43;;;;;;;32.60;18.13;;;8.20;61.00;;;;;;4937737;29;20442;-66
2024/01/24 09:48:11;;;;;;;36.58;21.38;;;8.20;61.10;;;;;;4937727;29;20365;-66
2024/01/24 09:50:38;;;;;;;41.17;21.85;;;8.30;61.40;;;;;;4937748;29;20350;-66
2024/01/24 09:53:07;;;;;;;37.30;22.00;;;8.30;61.50;;;;;;4937612;29;20079;-66
2024/01/24 09:55:34;;;;;;;36.97;20.20;;;8.40;61.20;;;;;;4937865;29;20349;-66
2024/01/24 09:58:01;;;;;;;34.75;21.52;;;8.40;61.10;;;;;;4937573;29;20031;-66
2024/01/24 10:00:27;;;;;;;42.72;21.80;;;8.50;60.90;;;;;;4937700;29;20031;-66
2024/01/24 10:02:55;;;;;;;38.33;21.77;;;8.60;61.00;;;;;;4937563;29;20039;-66
2024/01/24 10:05:22;;;;;;;40.83;21.70;;;8.60;60.70;;;;;;4937918;29;20142;-66
2024/01/24 10:07:50;;;;;;;40.72;22.55;;;8.70;60.70;;;;;;4937852;29;20031;-66
2024/01/24 10:10:16;;;;;;;37.30;20.38;;;8.80;60.10;;;;;;4937563;29;20099;-66
2024/01/24 10:12:43;;;;;;;35.72;20.67;;;8.80;60.60;;;;;;4937998;29;20039;-66
2024/01/24 10:15:14;;;;;;;38.42;20.98;;;8.80;60.60;;;;;;4920802;29;20159;-66
2024/01/24 10:17:46;;;;;;;37.08;22.05;;;8.90;59.90;;;;;;4937709;29;20031;-66
2024/01/24 10:20:13;;;;;;;43.95;24.35;;;8.90;59.60;;;;;;4937671;29;20429;-66
2024/01/24 10:22:40;;;;;;;38.38;23.27;;;8.90;58.50;;;;;;4937673;29;20051;-66
2024/01/24 10:25:09;;;;;;;37.90;23.05;;;8.90;59.30;;;;;;4937627;29;20513;-66
2024/01/24 10:27:37;;;;;;;42.03;24.55;;;8.90;58.70;;;;;;4939292;29;20038;-66
2024/01/24 10:30:10;;;;;;;41.83;23.75;;;8.90;59.10;;;;;;4941018;29;20123;-66
2024/01/24 10:32:37;;;;;;;45.20;25.90;;;8.90;59.00;;;;;;4939801;29;20106;-66
2024/01/24 10:35:06;;;;;;;42.30;23.85;;;8.80;58.10;;;;;;4941017;29;20122;-66
2024/01/24 10:37:33;;;;;;;46.65;26.95;;;8.80;58.80;;;;;;4940818;29;20087;-66
2024/01/24 10:40:11;;;;;;;47.10;26.25;;;8.80;58.50;;;;;;4940534;29;20110;-66
2024/01/24 10:42:41;;;;;;;50.42;31.08;;;8.70;59.20;;;;;;4939536;29;20031;-66
2024/01/24 10:45:08;;;;;;;51.15;29.75;;;8.80;59.90;;;;;;4940691;29;20015;-66
2024/01/24 10:47:35;;;;;;;55.38;31.50;;;8.80;59.70;;;;;;4940634;29;20461;-66
2024/01/24 10:50:06;;;;;;;54.95;32.78;;;8.80;59.70;;;;;;4940641;29;20394;-66
2024/01/24 10:52:36;;;;;;;50.67;30.52;;;8.90;59.60;;;;;;4940256;29;20036;-66
2024/01/24 10:55:05;;;;;;;45.65;26.55;;;8.90;59.60;;;;;;4940567;29;20035;-66
2024/01/24 10:57:35;;;;;;;42.67;24.48;;;8.90;59.50;;;;;;4940186;29;20035;-66
2024/01/24 11:00:15;;;;;;;50.42;28.10;;;8.90;59.40;;;;;;4940200;29;20079;-66
2024/01/24 11:02:41;;;;;;;52.20;27.80;;;8.90;59.50;;;;;;4939553;29;20107;-66
2024/01/24 11:05:14;;;;;;;46.65;26.52;;;8.90;59.30;;;;;;4940129;29;20020;-66
2024/01/24 11:07:56;;;;;;;41.53;23.98;;;8.90;59.50;;;;;;4940683;29;20051;-66
2024/01/24 11:10:36;;;;;;;53.70;29.27;;;8.90;59.70;;;;;;4940607;29;20047;-66
2024/01/24 11:13:04;;;;;;;61.00;32.03;;;8.90;59.60;;;;;;4940222;29;20118;-66
2024/01/24 11:15:31;;;;;;;62.28;35.90;;;9.00;59.40;;;;;;4939970;29;20103;-66
2024/01/24 11:18:28;;;;;;;60.05;33.28;;;9.00;59.20;;;;;;4938912;29;20087;-66
2024/01/24 11:21:03;;;;;;;50.75;29.02;;;9.00;60.20;;;;;;4939867;29;20090;-66
2024/01/24 11:23:38;;;;;;;50.65;30.10;;;9.10;59.80;;;;;;4939864;29;20042;-67
2024/01/24 11:26:05;;;;;;;47.53;25.85;;;9.10;59.70;;;;;;4938820;29;20379;-66
2024/01/24 11:28:31;;;;;;;44.70;24.63;;;9.20;59.70;;;;;;4940024;29;20023;-66
2024/01/24 11:30:57;;;;;;;44.47;28.33;;;9.20;59.40;;;;;;4939655;29;20147;-66
2024/01/24 11:33:23;;;;;;;42.72;24.73;;;9.30;59.90;;;;;;4939497;29;20119;-66
2024/01/24 11:35:51;;;;;;;43.60;25.92;;;9.30;59.80;;;;;;4939526;29;20373;-66
2024/01/24 11:38:17;;;;;;;43.45;26.20;;;9.40;60.00;;;;;;4938392;29;20031;-66
2024/01/24 11:40:43;;;;;;;43.55;26.05;;;9.40;59.70;;;;;;4939510;29;20043;-66
2024/01/24 11:43:32;;;;;;;46.25;27.90;;;9.40;59.80;;;;;;4939404;29;20020;-66
2024/01/24 11:46:03;;;;;;;43.80;25.98;;;9.50;59.60;;;;;;4939731;29;20024;-66
2024/01/24 11:48:39;;;;;;;46.38;26.48;;;9.60;59.80;;;;;;4939303;29;20035;-66
2024/01/24 11:51:09;;;;;;;41.78;25.65;;;9.70;59.80;;;;;;4939320;29;20074;-66
2024/01/24 11:53:35;;;;;;;45.85;26.48;;;9.70;59.40;;;;;;4939362;29;20108;-66
2024/01/24 11:56:12;;;;;;;39.50;25.20;;;9.80;59.80;;;;;;4939387;29;20028;-66
2024/01/24 11:58:39;;;;;;;40.13;23.33;;;9.80;58.60;;;;;;4939726;29;20052;-66
2024/01/24 12:01:13;;;;;;;40.67;23.38;;;9.90;58.70;;;;;;4939440;29;20020;-66
2024/01/24 12:03:46;;;;;;;38.05;23.10;;;9.90;58.50;;;;;;4939151;29;20075;-66
2024/01/24 12:06:12;;;;;;;42.65;23.77;;;9.90;58.50;;;;;;4938962;29;20369;-66
2024/01/24 12:08:38;;;;;;;34.85;21.42;;;10.00;57.50;;;;;;4939534;29;20031;-66
2024/01/24 12:11:09;;;;;;;38.63;22.58;;;10.00;58.10;;;;;;4938943;29;20023;-66
2024/01/24 12:13:37;;;;;;;38.88;23.40;;;10.10;58.00;;;;;;4938979;29;20452;-67
2024/01/24 12:16:03;;;;;;;44.33;24.08;;;10.10;57.90;;;;;;4938640;29;20035;-66
2024/01/24 12:18:31;;;;;;;39.58;24.17;;;10.10;58.10;;;;;;4939101;29;20042;-66
2024/01/24 12:20:57;;;;;;;34.53;21.95;;;10.20;57.70;;;;;;4938788;29;20026;-66
2024/01/24 12:23:23;;;;;;;38.83;24.20;;;10.20;58.30;;;;;;4938894;29;20115;-66
2024/01/24 12:25:49;;;;;;;41.08;25.40;;;10.20;58.70;;;;;;4938754;29;20090;-66
2024/01/24 12:28:16;;;;;;;36.30;21.10;;;10.30;58.30;;;;;;4938614;29;20043;-66
2024/01/24 12:30:48;;;;;;;40.10;22.60;;;10.40;57.80;;;;;;4938668;29;20390;-66
2024/01/24 12:33:16;;;;;;;45.92;24.95;;;10.40;57.30;;;;;;4938334;29;20047;-66
2024/01/24 12:35:48;;;;;;;38.88;21.92;;;10.40;56.40;;;;;;4938753;29;20062;-66
2024/01/24 12:38:15;;;;;;;40.22;21.85;;;10.40;56.90;;;;;;4938325;29;20032;-66